Flight Track Log - Related Links

Times and Time Zones

All times are in EDT time to prevent confusion due to time zone crossing. See the N20AZ flight status page for this flight to view local times or setup timezone preferences in your user account.

Time Position Orientation Groundspeed Altitude Reporting Facility
EDT Latitude Longitude Course Direction KTS MPH feet Rate Location/Type
Sun 09:57:17 AM 27.3833 -82.5667 299° West 99 114 300  Level Tampa TRACON
Sun 09:58:35 AM 27.4000 -82.6000 299° West 122 140 1,200 632 Climbing Tampa TRACON
Sun 09:59:30 AM 27.4333 -82.6333 318° Northwest 142 163 1,700 421 Climbing Tampa TRACON
Sun 10:00:29 AM 27.4667 -82.6167 24° Northeast 137 158 2,000 250 Climbing Tampa TRACON
Sun 10:01:30 AM 27.5000 -82.6333 336° Northwest 134 154 2,200 236 Climbing Tampa TRACON
Sun 10:02:36 AM 27.5333 -82.6500 336° Northwest 134 154 2,500 321 Climbing Tampa TRACON
Sun 10:03:41 AM 27.5833 -82.6667 344° North 127 146 2,900 400 Climbing Tampa TRACON
Sun 10:04:36 AM 27.6000 -82.6833 318° Northwest 128 147 3,300 417 Climbing Tampa TRACON
Sun 10:05:36 AM 27.6500 -82.7000 344° North 130 150 3,700 429 Climbing Tampa TRACON
Sun 10:06:42 AM 27.6833 -82.7000 360° North 132 152 4,200 476 Climbing Tampa TRACON
Sun 10:07:42 AM 27.7167 -82.7167 336° Northwest 126 145 4,700 571 Climbing Tampa TRACON
Sun 10:08:48 AM 27.7500 -82.7167 360° North 123 142 5,400 650 Climbing Tampa TRACON
Sun 10:09:42 AM 27.7833 -82.7167 360° North 124 143 6,000 600 Climbing Tampa TRACON
Sun 10:10:48 AM 27.8167 -82.7167 360° North 122 140 6,600 524 Climbing Tampa TRACON
Sun 10:11:48 AM 27.8500 -82.7167 360° North 123 142 7,100 500 Climbing Tampa TRACON
Sun 10:12:36 AM 27.8833 -82.7333 336° Northwest 117 135 7,500 529 Climbing Tampa TRACON
Sun 10:13:30 AM 27.9167 -82.7333 360° North 116 133 8,000 238 Climbing Tampa TRACON
Sun 10:14:42 AM 27.9500 -82.7500 336° Northwest 140 161 8,000  Level Tampa TRACON
Sun 10:15:48 AM 28.0000 -82.7500 360° North 149 171 8,000  Level Tampa TRACON
Sun 10:16:36 AM 28.0333 -82.7667 336° Northwest 150 173 8,000  Level Tampa TRACON
Sun 10:17:36 AM 28.0667 -82.7833 336° Northwest 150 173 8,000  Level Tampa TRACON
Sun 10:18:36 AM 28.1167 -82.8000 344° North 149 171 8,000  Level Tampa TRACON
Sun 10:19:36 AM 28.1500 -82.8000 360° North 148 170 8,000  Level Tampa TRACON
Sun 10:20:42 AM 28.2000 -82.8167 344° North 150 173 8,000  Level Tampa TRACON
Sun 10:21:42 AM 28.2333 -82.8333 336° Northwest 147 169 8,000  Level Tampa TRACON
Sun 10:22:43 AM 28.2667 -82.8333 360° North 146 168 8,000  Level Tampa TRACON
Sun 10:23:43 AM 28.3167 -82.8500 344° North 147 169 8,000  Level Tampa TRACON
Sun 10:24:42 AM 28.3500 -82.8667 336° Northwest 148 170 8,000  Level Tampa TRACON
Sun 10:25:42 AM 28.4000 -82.8667 360° North 147 169 8,000 -63 Level Tampa TRACON
Sun 10:26:17 AM 28.4128 -82.8783 321° Northwest 144 166 7,900 -63 Descending Jacksonville Center
Sun 10:27:17 AM 28.4525 -82.8878 348° North 144 166 7,900  Level Jacksonville Center
Sun 10:28:17 AM 28.4922 -82.8997 345° North 149 171 7,900  Level Jacksonville Center
Sun 10:29:17 AM 28.5319 -82.9092 348° North 149 171 7,900  Level Jacksonville Center
Sun 10:30:17 AM 28.5694 -82.9233 342° North 149 171 7,900  Level Jacksonville Center
Sun 10:31:17 AM 28.6089 -82.9328 348° North 149 171 7,900  Level Jacksonville Center
Sun 10:32:17 AM 28.6467 -82.9422 348° North 144 166 7,900  Level Jacksonville Center
Sun 10:33:17 AM 28.6842 -82.9517 348° North 144 166 7,900  Level Jacksonville Center
Sun 10:34:17 AM 28.7217 -82.9611 348° North 144 166 7,900  Level Jacksonville Center
Sun 10:35:17 AM 28.7614 -82.9756 342° North 144 166 7,900  Level Jacksonville Center
Sun 10:36:17 AM 28.8011 -82.9850 348° North 144 166 7,900  Level Jacksonville Center
Sun 10:37:17 AM 28.8386 -82.9969 344° North 144 166 7,900  Level Jacksonville Center
Sun 10:38:17 AM 28.8783 -83.0089 345° North 144 166 7,900  Level Jacksonville Center
Sun 10:39:17 AM 28.9158 -83.0206 345° North 144 166 7,900  Level Jacksonville Center
Sun 10:40:17 AM 28.9533 -83.0278 350° North 144 166 7,900  Level Jacksonville Center
Sun 10:41:17 AM 28.9908 -83.0397 344° North 144 166 7,900  Level Jacksonville Center
Sun 10:42:17 AM 29.0306 -83.0517 345° North 144 166 7,900  Level Jacksonville Center
Sun 10:43:17 AM 29.0661 -83.0611 347° North 144 166 7,900  Level Jacksonville Center
Sun 10:44:17 AM 29.1036 -83.0708 347° North 144 166 7,900  Level Jacksonville Center
Sun 10:45:17 AM 29.1411 -83.0828 344° North 144 166 7,900  Level Jacksonville Center
Sun 10:46:17 AM 29.1808 -83.0947 345° North 144 166 7,900  Level Jacksonville Center
Sun 10:47:17 AM 29.2183 -83.1044 347° North 144 166 7,900 50 Level Jacksonville Center
Sun 10:48:17 AM 29.2581 -83.1139 348° North 144 166 8,000 50 Climbing Jacksonville Center
Sun 10:49:17 AM 29.2933 -83.1283 340° North 144 166 8,000  Level Jacksonville Center
Sun 10:50:17 AM 29.3331 -83.1356 351° North 144 166 8,000  Level Jacksonville Center
Sun 10:51:17 AM 29.3706 -83.1475 344° North 144 166 8,000  Level Jacksonville Center
Sun 10:52:17 AM 29.4103 -83.1594 345° North 144 166 8,000  Level Jacksonville Center
Sun 10:53:17 AM 29.4500 -83.1644 354° North 144 166 8,000  Level Jacksonville Center
Sun 10:54:17 AM 29.4875 -83.1692 354° North 144 166 8,000 -50 Level Jacksonville Center
Sun 10:55:17 AM 29.5272 -83.1719 357° North 144 166 7,900 -50 Descending Jacksonville Center
Sun 10:56:17 AM 29.5667 -83.1767 354° North 144 166 7,900  Level Jacksonville Center
Sun 10:57:17 AM 29.6064 -83.1839 351° North 144 166 7,900  Level Jacksonville Center
Sun 10:58:17 AM 29.6439 -83.1961 344° North 144 166 7,900 50 Level Jacksonville Center
Sun 10:59:17 AM 29.6817 -83.2081 345° North 144 166 8,000 50 Climbing Jacksonville Center
Sun 11:00:17 AM 29.7150 -83.2178 346° North 144 166 8,000  Level Jacksonville Center
Sun 11:01:17 AM 29.7544 -83.2300 345° North 144 166 8,000  Level Jacksonville Center
Sun 11:02:17 AM 29.7922 -83.2394 348° North 144 166 8,000  Level Jacksonville Center
Sun 11:03:17 AM 29.8297 -83.2517 344° North 144 166 8,000  Level Jacksonville Center
Sun 11:04:17 AM 29.8692 -83.2639 345° North 144 166 8,000  Level Jacksonville Center
Sun 11:05:17 AM 29.9069 -83.2758 345° North 144 166 8,000 -50 Level Jacksonville Center
Sun 11:06:17 AM 29.9444 -83.2856 347° North 144 166 7,900  Descending Jacksonville Center
Sun 11:07:17 AM 29.9819 -83.2978 344° North 144 166 8,000 50 Climbing Jacksonville Center
Sun 11:08:17 AM 30.0194 -83.3075 347° North 144 166 8,000  Level Jacksonville Center
Sun 11:09:17 AM 30.0592 -83.3172 348° North 144 166 8,000  Level Jacksonville Center
Sun 11:10:17 AM 30.0944 -83.3294 343° North 144 166 8,000  Level Jacksonville Center
Sun 11:11:17 AM 30.1300 -83.3417 343° North 144 166 8,000  Level Jacksonville Center
Sun 11:12:17 AM 30.1675 -83.3514 347° North 144 166 8,000  Level Jacksonville Center
Sun 11:13:17 AM 30.2072 -83.3542 357° North 144 166 8,000 -55 Level Jacksonville Center
Sun 11:14:06 AM 30.2406 -83.3542 360° North 142 163 7,900  Descending Jacksonville Center
Sun 11:15:17 AM 30.2844 -83.3569 357° North 144 166 8,000  Climbing Jacksonville Center
Sun 11:16:07 AM 30.3178 -83.3667 346° North 140 161 7,900 -54 Descending Jacksonville Center
Sun 11:17:08 AM 30.3575 -83.3814 342° North 141 162 7,900  Level Jacksonville Center
Sun 11:18:09 AM 30.3950 -83.3936 344° North 140 161 7,900  Level Jacksonville Center
Sun 11:19:09 AM 30.4325 -83.4033 347° North 140 161 7,900  Level Jacksonville Center
Sun 11:20:10 AM 30.4722 -83.4156 345° North 141 162 7,900  Level Jacksonville Center
Sun 11:21:10 AM 30.5097 -83.4303 341° North 145 167 7,900 47 Level Jacksonville Center
Sun 11:22:17 AM 30.5514 -83.4378 351° North 144 166 8,000 47 Climbing Jacksonville Center
Sun 11:23:17 AM 30.5889 -83.4525 341° North 144 166 8,000 -52 Level Jacksonville Center
Sun 11:24:12 AM 30.6264 -83.4647 344° North 141 162 7,900 -52 Descending Jacksonville Center
Sun 11:25:13 AM 30.6619 -83.4769 344° North 142 163 7,900  Level Jacksonville Center
Sun 11:26:14 AM 30.7036 -83.4894 346° North 142 163 7,900  Level Jacksonville Center
Sun 11:27:14 AM 30.7411 -83.4992 347° North 143 165 7,900  Level Jacksonville Center
Sun 11:28:15 AM 30.7808 -83.5142 342° North 143 165 7,900  Level Jacksonville Center
Sun 11:29:15 AM 30.8203 -83.5264 345° North 143 165 7,900  Level Jacksonville Center
Sun 11:30:16 AM 30.8578 -83.5386 344° North 143 165 7,900  Level Jacksonville Center
Sun 11:31:17 AM 30.8994 -83.5511 346° North 143 165 7,900  Level Jacksonville Center
Sun 11:32:17 AM 30.9350 -83.5636 343° North 140 161 7,900  Level Jacksonville Center
Sun 11:33:18 AM 30.9747 -83.5733 348° North 140 161 7,900  Level Jacksonville Center
Sun 11:34:18 AM 31.0100 -83.5833 346° North 140 161 7,900 46 Level Jacksonville Center
Sun 11:35:29 AM 31.0581 -83.5958 347° North 161 185 8,000 46 Climbing Jacksonville Center
Sun 11:36:29 AM 31.0956 -83.6083 344° North 161 185 8,000  Level Jacksonville Center
Sun 11:37:29 AM 31.1331 -83.6208 344° North 143 165 8,000  Level Jacksonville Center
Sun 11:38:29 AM 31.1706 -83.6308 347° North 143 165 8,000  Level Jacksonville Center
Sun 11:39:29 AM 31.2100 -83.6456 342° North 143 165 8,000  Level Jacksonville Center
Sun 11:40:29 AM 31.2456 -83.6556 346° North 143 165 8,000  Level Jacksonville Center
Sun 11:41:29 AM 31.2831 -83.6681 344° North 143 165 8,000  Level Jacksonville Center
Sun 11:42:29 AM 31.3228 -83.6806 345° North 143 165 8,000  Level Jacksonville Center
Sun 11:43:29 AM 31.3603 -83.6931 344° North 143 165 8,000  Level Jacksonville Center
Sun 11:44:29 AM 31.3997 -83.7056 345° North 143 165 8,000  Level Jacksonville Center
Sun 11:45:29 AM 31.4353 -83.7156 347° North 143 165 8,000  Level Jacksonville Center
Sun 11:46:29 AM 31.4747 -83.7281 345° North 143 165 8,000  Level Jacksonville Center
Sun 11:47:29 AM 31.5144 -83.7406 345° North 143 165 8,000  Level Jacksonville Center
Sun 11:48:29 AM 31.5519 -83.7533 344° North 143 165 8,000  Level Jacksonville Center
Sun 11:49:29 AM 31.5894 -83.7658 344° North 143 165 8,000  Level Jacksonville Center
Sun 11:50:29 AM 31.6269 -83.7783 344° North 143 165 8,000  Level Jacksonville Center
Sun 11:51:29 AM 31.6603 -83.7908 342° North 143 165 8,000  Level Jacksonville Center
Sun 11:52:29 AM 31.7019 -83.7986 351° North 143 165 8,000  Level Jacksonville Center
Sun 11:53:29 AM 31.7394 -83.8136 341° North 143 165 8,000  Level Jacksonville Center
Sun 11:54:29 AM 31.7789 -83.8261 345° North 149 171 8,000  Level Jacksonville Center
Sun 11:55:29 AM 31.8186 -83.8364 348° North 149 171 8,000  Level Jacksonville Center
Sun 11:56:29 AM 31.8561 -83.8489 344° North 149 171 8,000  Level Jacksonville Center
Sun 11:57:29 AM 31.8978 -83.8642 343° North 149 171 8,000  Level Jacksonville Center
Sun 11:58:29 AM 31.9353 -83.8742 347° North 149 171 8,000 -50 Level Jacksonville Center
Sun 11:59:29 AM 31.9728 -83.8869 344° North 144 166 7,900 -37 Descending Jacksonville Center
Sun 12:01:11 PM 32.0500 -83.9167 342° North 148 170 7,900  Level Atlanta TRACON
Sun 12:02:11 PM 32.0833 -83.9167 360° North 148 170 7,900  Level Atlanta TRACON
Sun 12:03:11 PM 32.1167 -83.9333 337° Northwest 143 165 7,900  Level Atlanta TRACON
Sun 12:04:11 PM 32.1667 -83.9500 344° North 146 168 7,900  Level Atlanta TRACON
Sun 12:05:11 PM 32.2000 -83.9333 23° Northeast 146 168 7,900  Level Atlanta TRACON
Sun 12:06:11 PM 32.2500 -83.9333 360° North 147 169 7,900  Level Atlanta TRACON
Sun 12:07:11 PM 32.2833 -83.9333 360° North 146 168 7,900  Level Atlanta TRACON
Sun 12:08:11 PM 32.3333 -83.9333 360° North 146 168 7,900  Level Atlanta TRACON
Sun 12:09:11 PM 32.3667 -83.9333 360° North 145 167 7,900  Level Atlanta TRACON
Sun 12:10:11 PM 32.4000 -83.9333 360° North 146 168 7,900  Level Atlanta TRACON
Sun 12:11:11 PM 32.4500 -83.9333 360° North 146 168 7,900  Level Atlanta TRACON
Sun 12:12:11 PM 32.4833 -83.9167 23° Northeast 144 166 7,900  Level Atlanta TRACON
Sun 12:13:17 PM 32.5333 -83.9167 360° North 147 169 7,900  Level Atlanta TRACON
Sun 12:14:11 PM 32.5667 -83.9167 360° North 144 166 7,900  Level Atlanta TRACON
Sun 12:15:12 PM 32.6000 -83.9167 360° North 142 163 7,900  Level Atlanta TRACON
Sun 12:16:11 PM 32.6500 -83.9167 360° North 143 165 7,900  Level Atlanta TRACON
Sun 12:17:06 PM 32.6833 -83.9167 360° North 143 165 7,900  Level Atlanta TRACON
Sun 12:18:11 PM 32.7167 -83.9167 360° North 140 161 7,900 -303 Level Atlanta TRACON
Sun 12:19:05 PM 32.7667 -83.9000 16° North 149 171 7,300 -600 Descending Atlanta TRACON
Sun 12:20:11 PM 32.8000 -83.9000 360° North 156 180 6,700 -619 Descending Atlanta TRACON
Sun 12:21:11 PM 32.8500 -83.9000 360° North 154 177 6,000 -450 Descending Atlanta TRACON
Sun 12:22:11 PM 32.8833 -83.9000 360° North 150 173 5,800 -50 Descending Atlanta TRACON
Sun 12:23:12 PM 32.9333 -83.9000 360° North 145 167 5,900 48 Climbing Atlanta TRACON
Sun 12:24:17 PM 32.9833 -83.9000 360° North 141 162 5,900  Level Atlanta TRACON
Sun 12:25:17 PM 33.0167 -83.9000 360° North 145 167 5,900  Level Atlanta TRACON
Sun 12:26:17 PM 33.0500 -83.8833 23° Northeast 140 161 5,900  Level Atlanta TRACON
Sun 12:27:17 PM 33.1000 -83.8833 360° North 139 160 5,900  Level Atlanta TRACON
Sun 12:28:17 PM 33.1333 -83.8833 360° North 142 163 5,900  Level Atlanta TRACON
Sun 12:29:18 PM 33.1667 -83.8833 360° North 142 163 5,900  Level Atlanta TRACON
Sun 12:30:17 PM 33.2000 -83.8833 360° North 140 161 5,900  Level Atlanta TRACON
Sun 12:31:18 PM 33.2500 -83.8667 16° North 142 163 5,900  Level Atlanta TRACON
Sun 12:32:18 PM 33.2833 -83.8833 337° Northwest 143 165 5,900 -53 Level Atlanta TRACON
Sun 12:33:12 PM 33.3167 -83.8667 23° Northeast 142 163 5,800  Descending Atlanta TRACON
Sun 12:34:12 PM 33.3500 -83.8667 360° North 143 165 5,900 50 Climbing Atlanta TRACON
Sun 12:35:12 PM 33.4000 -83.8667 360° North 146 168 5,900  Level Atlanta TRACON
Sun 12:36:12 PM 33.4333 -83.8667 360° North 139 160 5,900  Level Atlanta TRACON
Sun 12:37:18 PM 33.4833 -83.8500 16° North 146 168 5,900 -95 Level Atlanta TRACON
Sun 12:38:18 PM 33.5167 -83.8500 360° North 143 165 5,700 -504 Descending Atlanta TRACON
Sun 12:39:17 PM 33.5667 -83.8333 16° North 158 182 4,900 -850 Descending Atlanta TRACON
Sun 12:40:18 PM 33.6000 -83.8167 23° Northeast 161 185 4,000 -545 Descending Atlanta TRACON
Sun 12:41:18 PM 33.6333 -83.8167 360° North 149 171 3,800 -100 Descending Atlanta TRACON
Sun 12:42:18 PM 33.6833 -83.8167 360° North 142 163 3,800  Level Atlanta TRACON
Sun 12:43:18 PM 33.7167 -83.8167 360° North 145 167 3,800  Level Atlanta TRACON
Sun 12:44:12 PM 33.7500 -83.8167 360° North 143 165 3,800  Level Atlanta TRACON
Sun 12:45:12 PM 33.7833 -83.8500 320° Northwest 131 151 3,800 48 Level Atlanta TRACON
Sun 12:46:18 PM 33.8000 -83.9000 292° West 135 155 3,900 48 Climbing Atlanta TRACON
Sun 12:47:18 PM 33.8167 -83.9333 301° West 133 153 3,900 -50 Level Atlanta TRACON
Sun 12:48:18 PM 33.8333 -83.9667 301° West 131 151 3,800  Descending Atlanta TRACON
Sun 12:49:18 PM 33.8500 -84.0000 301° West 147 169 3,900  Climbing Atlanta TRACON
Sun 12:50:12 PM 33.8833 -84.0167 337° Northwest 143 165 3,800 -53 Descending Atlanta TRACON
Sun 12:51:12 PM 33.9333 -84.0333 345° North 141 162 3,800  Level Atlanta TRACON
Sun 12:52:18 PM 33.9667 -84.0500 337° Northwest 143 165 3,800  Level Atlanta TRACON
Sun 12:53:18 PM 34.0000 -84.0667 337° Northwest 138 159 3,800  Level Atlanta TRACON
Sun 12:54:24 PM 34.0167 -84.1167 292° West 129 148 3,800 -200 Level Atlanta TRACON
Sun 12:55:18 PM 34.0167 -84.1667 270° West 132 152 3,400 -368 Descending Atlanta TRACON
Sun 12:56:18 PM 34.0167 -84.2000 270° West 131 151 3,100 -238 Descending Atlanta TRACON
Sun 12:57:24 PM 34.0167 -84.2500 270° West 124 143 2,900 -95 Descending Atlanta TRACON
Sun 12:58:24 PM 34.0167 -84.2833 270° West 122 140 2,900  Level Atlanta TRACON
Sun 12:59:18 PM 34.0167 -84.3333 270° West 125 144 2,900  Level Atlanta TRACON
Sun 01:00:18 PM 34.0167 -84.3667 270° West 124 143 2,900  Level Atlanta TRACON
Sun 01:01:23 PM 34.0167 -84.4167 270° West 128 147 2,900  Level Atlanta TRACON
Sun 01:02:23 PM 34.0167 -84.4500 270° West 126 145 2,900 -313 Level Atlanta TRACON
Sun 01:03:18 PM 34.0167 -84.5000 270° West 136 157 2,300 -595 Descending Atlanta TRACON
Sun 01:04:24 PM 34.0167 -84.5333 270° West 127 146 1,700 -545 Descending Atlanta TRACON
Sun 01:06:00 PM 34.0000 -84.5833 270° West  Level FlightAware Approximate
Sun 01:13:00 PM 34.0132 -84.5971 270° West  Level Estimated

Login

Don't have an account? Register now (free) for customized features, flight alerts, and more!